sensor_id;sensor_type;location;lat;lon;timestamp;pressure;altitude;pressure_sealevel;temperature;humidity
49583;BME280;36329;48.816;44.624;2023-04-28T00:01:42;100780;;;15.9;63.8
49583;BME280;36329;48.816;44.624;2023-04-28T00:04:44;100782;;;15.9;64.4
49583;BME280;36329;48.816;44.624;2023-04-28T00:07:47;100783;;;15.7;64.6
49583;BME280;36329;48.816;44.624;2023-04-28T00:10:48;100783;;;15.8;65
49583;BME280;36329;48.816;44.624;2023-04-28T00:13:56;100783;;;15.8;64.7
49583;BME280;36329;48.816;44.624;2023-04-28T00:17:05;100773;;;15.7;64.1
49583;BME280;36329;48.816;44.624;2023-04-28T00:20:07;100776;;;15.8;64
49583;BME280;36329;48.816;44.624;2023-04-28T00:23:10;100775;;;15.8;64.2
49583;BME280;36329;48.816;44.624;2023-04-28T00:26:12;100773;;;15.7;63.9
49583;BME280;36329;48.816;44.624;2023-04-28T00:29:20;100773;;;15.7;64.1
49583;BME280;36329;48.816;44.624;2023-04-28T00:32:23;100769;;;15.7;64.5
49583;BME280;36329;48.816;44.624;2023-04-28T00:35:26;100770;;;15.8;64.5
49583;BME280;36329;48.816;44.624;2023-04-28T00:38:36;100773;;;15.6;64.1
49583;BME280;36329;48.816;44.624;2023-04-28T00:41:38;100771;;;15.6;64.9
49583;BME280;36329;48.816;44.624;2023-04-28T00:44:40;100765;;;15.6;63.9
49583;BME280;36329;48.816;44.624;2023-04-28T00:47:42;100766;;;15.6;63
49583;BME280;36329;48.816;44.624;2023-04-28T00:50:45;100763;;;15.6;64.7
49583;BME280;36329;48.816;44.624;2023-04-28T00:53:49;100772;;;15.7;65.3
49583;BME280;36329;48.816;44.624;2023-04-28T00:56:53;100774;;;15.6;65.6
49583;BME280;36329;48.816;44.624;2023-04-28T00:59:55;100777;;;15.6;65
49583;BME280;36329;48.816;44.624;2023-04-28T01:02:57;100776;;;15.6;65.1
49583;BME280;36329;48.816;44.624;2023-04-28T01:06:00;100776;;;15.6;65.6
49583;BME280;36329;48.816;44.624;2023-04-28T01:09:02;100771;;;15.5;65.6
49583;BME280;36329;48.816;44.624;2023-04-28T01:12:04;100776;;;15.4;65.1
49583;BME280;36329;48.816;44.624;2023-04-28T01:15:09;100775;;;15.4;65.7
49583;BME280;36329;48.816;44.624;2023-04-28T01:18:15;100774;;;15.3;65.7
49583;BME280;36329;48.816;44.624;2023-04-28T01:21:24;100776;;;15.3;65.8
49583;BME280;36329;48.816;44.624;2023-04-28T01:24:27;100773;;;15.2;66.7
49583;BME280;36329;48.816;44.624;2023-04-28T01:27:29;100777;;;15.3;66.5
49583;BME280;36329;48.816;44.624;2023-04-28T01:30:31;100783;;;15.4;66.2
49583;BME280;36329;48.816;44.624;2023-04-28T01:33:33;100777;;;15.4;65.6
49583;BME280;36329;48.816;44.624;2023-04-28T01:36:35;100779;;;15.2;66.4
49583;BME280;36329;48.816;44.624;2023-04-28T01:39:37;100781;;;15.1;68
49583;BME280;36329;48.816;44.624;2023-04-28T01:42:39;100776;;;15.2;66.7
49583;BME280;36329;48.816;44.624;2023-04-28T01:45:41;100783;;;15.1;67.3
49583;BME280;36329;48.816;44.624;2023-04-28T01:48:43;100783;;;15.2;66.6
49583;BME280;36329;48.816;44.624;2023-04-28T01:51:45;100778;;;15.3;66.1
49583;BME280;36329;48.816;44.624;2023-04-28T01:54:47;100778;;;15.1;66.6
49583;BME280;36329;48.816;44.624;2023-04-28T01:57:49;100776;;;15.1;67.1
49583;BME280;36329;48.816;44.624;2023-04-28T02:00:51;100775;;;15;66.9
49583;BME280;36329;48.816;44.624;2023-04-28T02:03:53;100778;;;14.9;67.4
49583;BME280;36329;48.816;44.624;2023-04-28T02:06:54;100786;;;14.9;67.1
49583;BME280;36329;48.816;44.624;2023-04-28T02:09:57;100781;;;14.8;67.4
49583;BME280;36329;48.816;44.624;2023-04-28T02:12:58;100782;;;14.7;67.8
49583;BME280;36329;48.816;44.624;2023-04-28T02:16:01;100790;;;14.8;67.7
49583;BME280;36329;48.816;44.624;2023-04-28T02:19:03;100784;;;14.9;67.2
49583;BME280;36329;48.816;44.624;2023-04-28T02:22:05;100784;;;14.9;66.9
49583;BME280;36329;48.816;44.624;2023-04-28T02:25:08;100784;;;15;66.4
49583;BME280;36329;48.816;44.624;2023-04-28T02:28:10;100791;;;15.1;66.8
49583;BME280;36329;48.816;44.624;2023-04-28T02:31:12;100792;;;15.2;66.2
49583;BME280;36329;48.816;44.624;2023-04-28T02:34:14;100793;;;15.1;66.2
49583;BME280;36329;48.816;44.624;2023-04-28T02:37:16;100783;;;15.1;66.2
49583;BME280;36329;48.816;44.624;2023-04-28T02:40:18;100783;;;15.2;66.4
49583;BME280;36329;48.816;44.624;2023-04-28T02:43:20;100794;;;15.1;66.7
49583;BME280;36329;48.816;44.624;2023-04-28T02:46:22;100794;;;15.2;66.6
49583;BME280;36329;48.816;44.624;2023-04-28T02:49:24;100797;;;15.1;66.8
49583;BME280;36329;48.816;44.624;2023-04-28T02:52:25;100795;;;15.2;67.2
49583;BME280;36329;48.816;44.624;2023-04-28T02:55:27;100798;;;15.2;67
49583;BME280;36329;48.816;44.624;2023-04-28T02:58:29;100804;;;15.3;67.4
49583;BME280;36329;48.816;44.624;2023-04-28T03:01:32;100809;;;15.3;66.9
49583;BME280;36329;48.816;44.624;2023-04-28T03:04:33;100808;;;15.3;67.7
49583;BME280;36329;48.816;44.624;2023-04-28T03:07:36;100811;;;15.3;66.8
49583;BME280;36329;48.816;44.624;2023-04-28T03:10:38;100808;;;15.5;67.1
49583;BME280;36329;48.816;44.624;2023-04-28T03:13:40;100816;;;15.6;67.4
49583;BME280;36329;48.816;44.624;2023-04-28T03:16:42;100811;;;15.5;67.7
49583;BME280;36329;48.816;44.624;2023-04-28T03:19:44;100813;;;15.5;67.5
49583;BME280;36329;48.816;44.624;2023-04-28T03:22:46;100819;;;15.5;66.9
49583;BME280;36329;48.816;44.624;2023-04-28T03:25:48;100816;;;15.5;67.1
49583;BME280;36329;48.816;44.624;2023-04-28T03:28:50;100814;;;15.5;67.6
49583;BME280;36329;48.816;44.624;2023-04-28T03:31:52;100810;;;15.5;67.4
49583;BME280;36329;48.816;44.624;2023-04-28T03:34:54;100817;;;15.5;68.9
49583;BME280;36329;48.816;44.624;2023-04-28T03:37:56;100816;;;15.6;67.7
49583;BME280;36329;48.816;44.624;2023-04-28T03:40:58;100815;;;15.8;67.3
49583;BME280;36329;48.816;44.624;2023-04-28T03:44:00;100822;;;15.9;66.3
49583;BME280;36329;48.816;44.624;2023-04-28T03:47:02;100815;;;16;67.3
49583;BME280;36329;48.816;44.624;2023-04-28T03:50:05;100821;;;16.2;67.5
49583;BME280;36329;48.816;44.624;2023-04-28T03:53:07;100815;;;16.2;67.1
49583;BME280;36329;48.816;44.624;2023-04-28T03:56:10;100819;;;16.3;66.6
49583;BME280;36329;48.816;44.624;2023-04-28T03:59:12;100818;;;16.5;65.8
49583;BME280;36329;48.816;44.624;2023-04-28T04:02:14;100821;;;16.6;66.5
49583;BME280;36329;48.816;44.624;2023-04-28T04:05:16;100822;;;16.7;64.8
49583;BME280;36329;48.816;44.624;2023-04-28T04:08:18;100824;;;16.8;65.4
49583;BME280;36329;48.816;44.624;2023-04-28T04:11:20;100823;;;16.9;65.5
49583;BME280;36329;48.816;44.624;2023-04-28T04:14:22;100819;;;17.1;64
49583;BME280;36329;48.816;44.624;2023-04-28T04:17:24;100823;;;17.2;62.8
49583;BME280;36329;48.816;44.624;2023-04-28T04:20:26;100821;;;17.4;63.3
49583;BME280;36329;48.816;44.624;2023-04-28T04:23:28;100817;;;17.6;62.5
49583;BME280;36329;48.816;44.624;2023-04-28T04:26:30;100823;;;17.8;62.1
49583;BME280;36329;48.816;44.624;2023-04-28T04:29:32;100827;;;17.8;60.8
49583;BME280;36329;48.816;44.624;2023-04-28T04:32:34;100826;;;17.8;61.1
49583;BME280;36329;48.816;44.624;2023-04-28T04:35:36;100828;;;17.9;63.3
49583;BME280;36329;48.816;44.624;2023-04-28T04:38:38;100832;;;18;62.1
49583;BME280;36329;48.816;44.624;2023-04-28T04:41:40;100835;;;18.1;60.8
49583;BME280;36329;48.816;44.624;2023-04-28T04:44:42;100836;;;18.2;60.9
49583;BME280;36329;48.816;44.624;2023-04-28T04:47:44;100838;;;18.3;61.5
49583;BME280;36329;48.816;44.624;2023-04-28T04:50:46;100828;;;18.5;62.5
49583;BME280;36329;48.816;44.624;2023-04-28T04:53:48;100831;;;18.8;60.8
49583;BME280;36329;48.816;44.624;2023-04-28T04:56:50;100829;;;19;59.8
49583;BME280;36329;48.816;44.624;2023-04-28T04:59:52;100841;;;19;59.6
49583;BME280;36329;48.816;44.624;2023-04-28T05:02:54;100838;;;19.1;59
49583;BME280;36329;48.816;44.624;2023-04-28T05:05:56;100832;;;19.3;58.3
49583;BME280;36329;48.816;44.624;2023-04-28T05:08:58;100837;;;19.6;57.5
49583;BME280;36329;48.816;44.624;2023-04-28T05:11:59;100834;;;19.7;59.9
49583;BME280;36329;48.816;44.624;2023-04-28T05:15:02;100832;;;19.8;57.8
49583;BME280;36329;48.816;44.624;2023-04-28T05:18:05;100837;;;19.6;56.4
49583;BME280;36329;48.816;44.624;2023-04-28T05:21:06;100835;;;19.9;55.6
49583;BME280;36329;48.816;44.624;2023-04-28T05:24:08;100836;;;20.1;54.6
49583;BME280;36329;48.816;44.624;2023-04-28T05:27:10;100842;;;20.2;54.2
49583;BME280;36329;48.816;44.624;2023-04-28T05:30:13;100842;;;20.3;54.8
49583;BME280;36329;48.816;44.624;2023-04-28T05:33:15;100841;;;20.5;53.7
49583;BME280;36329;48.816;44.624;2023-04-28T05:36:17;100848;;;20.5;52.7
49583;BME280;36329;48.816;44.624;2023-04-28T05:39:19;100846;;;20.8;52.3
49583;BME280;36329;48.816;44.624;2023-04-28T05:42:21;100851;;;21;51.4
49583;BME280;36329;48.816;44.624;2023-04-28T05:45:23;100851;;;21;50.9
49583;BME280;36329;48.816;44.624;2023-04-28T05:48:25;100847;;;21.1;50.8
49583;BME280;36329;48.816;44.624;2023-04-28T05:51:27;100847;;;21.4;51
49583;BME280;36329;48.816;44.624;2023-04-28T05:54:29;100845;;;21.6;48.7
49583;BME280;36329;48.816;44.624;2023-04-28T05:57:31;100849;;;22;48.1
49583;BME280;36329;48.816;44.624;2023-04-28T06:00:34;100845;;;22.1;46.1
49583;BME280;36329;48.816;44.624;2023-04-28T06:03:36;100837;;;22.3;43.1
49583;BME280;36329;48.816;44.624;2023-04-28T06:06:38;100833;;;21.9;42.5
49583;BME280;36329;48.816;44.624;2023-04-28T06:09:40;100839;;;22.4;41.3
49583;BME280;36329;48.816;44.624;2023-04-28T06:12:42;100837;;;21.7;41.1
49583;BME280;36329;48.816;44.624;2023-04-28T06:15:44;100839;;;22.2;40.2
49583;BME280;36329;48.816;44.624;2023-04-28T06:18:46;100852;;;21.8;40.3
49583;BME280;36329;48.816;44.624;2023-04-28T06:21:48;100850;;;22.1;39.7
49583;BME280;36329;48.816;44.624;2023-04-28T06:24:50;100858;;;22.3;39.4
49583;BME280;36329;48.816;44.624;2023-04-28T06:27:52;100857;;;22.3;39.8
49583;BME280;36329;48.816;44.624;2023-04-28T06:30:55;100844;;;22.2;39.8
49583;BME280;36329;48.816;44.624;2023-04-28T06:33:57;100841;;;22.6;38.6
49583;BME280;36329;48.816;44.624;2023-04-28T06:36:59;100844;;;22.9;38.3
49583;BME280;36329;48.816;44.624;2023-04-28T06:40:02;100849;;;23.5;37.8
49583;BME280;36329;48.816;44.624;2023-04-28T06:43:06;100851;;;23;37.8
49583;BME280;36329;48.816;44.624;2023-04-28T06:46:08;100849;;;22.9;38.2
49583;BME280;36329;48.816;44.624;2023-04-28T06:49:10;100844;;;23.9;36.6
49583;BME280;36329;48.816;44.624;2023-04-28T06:52:12;100850;;;24;36.1
49583;BME280;36329;48.816;44.624;2023-04-28T06:55:15;100842;;;23.3;36.8
49583;BME280;36329;48.816;44.624;2023-04-28T06:58:18;100841;;;23.7;36
49583;BME280;36329;48.816;44.624;2023-04-28T07:01:20;100838;;;23.6;36.8
49583;BME280;36329;48.816;44.624;2023-04-28T07:04:24;100839;;;24.3;35.7
49583;BME280;36329;48.816;44.624;2023-04-28T07:07:26;100834;;;24.3;35.1
49583;BME280;36329;48.816;44.624;2023-04-28T07:10:28;100852;;;23.5;35.4
49583;BME280;36329;48.816;44.624;2023-04-28T07:13:30;100832;;;24;34.3
49583;BME280;36329;48.816;44.624;2023-04-28T07:16:32;100834;;;24;33.5
49583;BME280;36329;48.816;44.624;2023-04-28T07:19:35;100828;;;23.9;34
49583;BME280;36329;48.816;44.624;2023-04-28T07:22:38;100832;;;24.3;34
49583;BME280;36329;48.816;44.624;2023-04-28T07:25:40;100826;;;24.6;33.7
49583;BME280;36329;48.816;44.624;2023-04-28T07:28:43;100828;;;24.7;33.4
49583;BME280;36329;48.816;44.624;2023-04-28T07:31:45;100818;;;24.6;33.4
49583;BME280;36329;48.816;44.624;2023-04-28T07:34:47;100827;;;24.4;32.9
49583;BME280;36329;48.816;44.624;2023-04-28T07:37:49;100810;;;24.8;33.2
49583;BME280;36329;48.816;44.624;2023-04-28T07:40:51;100813;;;25.7;32.1
49583;BME280;36329;48.816;44.624;2023-04-28T07:43:53;100807;;;25;32.7
49583;BME280;36329;48.816;44.624;2023-04-28T07:46:55;100807;;;25.2;32.8
49583;BME280;36329;48.816;44.624;2023-04-28T07:49:57;100803;;;25.5;33.6
49583;BME280;36329;48.816;44.624;2023-04-28T07:52:59;100797;;;25.4;32.5
49583;BME280;36329;48.816;44.624;2023-04-28T07:56:01;100794;;;25.6;32.6
49583;BME280;36329;48.816;44.624;2023-04-28T07:59:03;100799;;;25.9;32.3
49583;BME280;36329;48.816;44.624;2023-04-28T08:02:05;100794;;;26.1;32.8
49583;BME280;36329;48.816;44.624;2023-04-28T08:05:07;100781;;;25;32.5
49583;BME280;36329;48.816;44.624;2023-04-28T08:08:10;100789;;;25.5;32.6
49583;BME280;36329;48.816;44.624;2023-04-28T08:11:12;100793;;;25.6;32.2
49583;BME280;36329;48.816;44.624;2023-04-28T08:14:14;100786;;;25.6;31.9
49583;BME280;36329;48.816;44.624;2023-04-28T08:17:16;100786;;;25.9;32.1
49583;BME280;36329;48.816;44.624;2023-04-28T08:20:18;100778;;;25.5;31.1
49583;BME280;36329;48.816;44.624;2023-04-28T08:23:20;100777;;;25.3;32.1
49583;BME280;36329;48.816;44.624;2023-04-28T08:26:23;100774;;;25.6;32.7
49583;BME280;36329;48.816;44.624;2023-04-28T08:29:25;100778;;;25.8;32.4
49583;BME280;36329;48.816;44.624;2023-04-28T08:32:27;100772;;;26.2;32.6
49583;BME280;36329;48.816;44.624;2023-04-28T08:35:30;100772;;;26.5;31.6
49583;BME280;36329;48.816;44.624;2023-04-28T08:38:32;100780;;;25.9;31.6
49583;BME280;36329;48.816;44.624;2023-04-28T08:41:37;100774;;;26.6;31.8
49583;BME280;36329;48.816;44.624;2023-04-28T08:44:39;100766;;;26.4;31.3
49583;BME280;36329;48.816;44.624;2023-04-28T08:47:41;100756;;;25.7;31.8
49583;BME280;36329;48.816;44.624;2023-04-28T08:50:48;100766;;;25.6;31.9
49583;BME280;36329;48.816;44.624;2023-04-28T08:53:53;100756;;;25.9;32.1
49583;BME280;36329;48.816;44.624;2023-04-28T08:56:57;100747;;;26.1;31.8
49583;BME280;36329;48.816;44.624;2023-04-28T08:59:59;100751;;;25.9;31.7
49583;BME280;36329;48.816;44.624;2023-04-28T09:03:01;100751;;;26.2;31.5
49583;BME280;36329;48.816;44.624;2023-04-28T09:06:03;100743;;;26.1;31.9
49583;BME280;36329;48.816;44.624;2023-04-28T09:09:21;100740;;;27.2;31
49583;BME280;36329;48.816;44.624;2023-04-28T09:12:34;100732;;;27.2;30.3
49583;BME280;36329;48.816;44.624;2023-04-28T09:15:38;100742;;;27.6;30.1
49583;BME280;36329;48.816;44.624;2023-04-28T09:18:54;100733;;;27.5;30.5
49583;BME280;36329;48.816;44.624;2023-04-28T09:21:57;100734;;;28.5;29.4
49583;BME280;36329;48.816;44.624;2023-04-28T09:25:09;100734;;;27.9;29.8
49583;BME280;36329;48.816;44.624;2023-04-28T09:28:19;100728;;;27.1;30.1
49583;BME280;36329;48.816;44.624;2023-04-28T09:31:23;100732;;;27.8;29.9
49583;BME280;36329;48.816;44.624;2023-04-28T09:34:27;100729;;;28;28.7
49583;BME280;36329;48.816;44.624;2023-04-28T09:37:43;100723;;;27.3;29.8
49583;BME280;36329;48.816;44.624;2023-04-28T09:40:49;100722;;;27;30.1
49583;BME280;36329;48.816;44.624;2023-04-28T09:43:51;100711;;;26.7;29.9
49583;BME280;36329;48.816;44.624;2023-04-28T09:46:53;100715;;;26.5;30.2
49583;BME280;36329;48.816;44.624;2023-04-28T09:49:57;100734;;;25.6;31.3
49583;BME280;36329;48.816;44.624;2023-04-28T09:52:59;100722;;;25.9;30.7
49583;BME280;36329;48.816;44.624;2023-04-28T09:56:02;100716;;;26.4;30.9
49583;BME280;36329;48.816;44.624;2023-04-28T09:59:05;100720;;;25.6;31.3
49583;BME280;36329;48.816;44.624;2023-04-28T10:02:07;100720;;;25.7;31.7
49583;BME280;36329;48.816;44.624;2023-04-28T10:05:09;100711;;;26.5;30.9
49583;BME280;36329;48.816;44.624;2023-04-28T10:08:12;100717;;;26.1;32.1
49583;BME280;36329;48.816;44.624;2023-04-28T10:11:15;100718;;;26.2;32.5
49583;BME280;36329;48.816;44.624;2023-04-28T10:14:17;100718;;;26;32.6
49583;BME280;36329;48.816;44.624;2023-04-28T10:17:20;100717;;;25.9;32.5
49583;BME280;36329;48.816;44.624;2023-04-28T10:20:23;100712;;;25.7;33.4
49583;BME280;36329;48.816;44.624;2023-04-28T10:27:01;100722;;;25.6;33
49583;BME280;36329;48.816;44.624;2023-04-28T10:30:14;100711;;;25.5;33.7
49583;BME280;36329;48.816;44.624;2023-04-28T10:33:24;100707;;;26.1;32.8
49583;BME280;36329;48.816;44.624;2023-04-28T10:36:46;100707;;;26.1;33
49583;BME280;36329;48.816;44.624;2023-04-28T10:43:37;100720;;;25.6;32.6
49583;BME280;36329;48.816;44.624;2023-04-28T10:46:59;100707;;;26;32.4
49583;BME280;36329;48.816;44.624;2023-04-28T10:50:04;100701;;;26.4;32
49583;BME280;36329;48.816;44.624;2023-04-28T10:53:06;100700;;;26.5;31.7
49583;BME280;36329;48.816;44.624;2023-04-28T10:56:09;100708;;;26.1;31.7
49583;BME280;36329;48.816;44.624;2023-04-28T10:59:26;100694;;;25.8;31.6
49583;BME280;36329;48.816;44.624;2023-04-28T11:02:38;100701;;;25.3;32
49583;BME280;36329;48.816;44.624;2023-04-28T11:16:11;100680;;;25.8;30.8
49583;BME280;36329;48.816;44.624;2023-04-28T11:19:17;100689;;;25.3;31.9
49583;BME280;36329;48.816;44.624;2023-04-28T11:22:21;100678;;;25.3;31.9
49583;BME280;36329;48.816;44.624;2023-04-28T11:25:23;100671;;;25.4;31.7
49583;BME280;36329;48.816;44.624;2023-04-28T11:28:25;100675;;;25.5;31.8
49583;BME280;36329;48.816;44.624;2023-04-28T11:31:27;100665;;;25.4;32.3
49583;BME280;36329;48.816;44.624;2023-04-28T11:34:29;100656;;;25.4;32.2
49583;BME280;36329;48.816;44.624;2023-04-28T11:37:31;100661;;;25.1;32.4
49583;BME280;36329;48.816;44.624;2023-04-28T11:40:33;100651;;;25.1;32.1
49583;BME280;36329;48.816;44.624;2023-04-28T11:43:36;100657;;;24.9;32.6
49583;BME280;36329;48.816;44.624;2023-04-28T11:46:43;100649;;;25.1;32.5
49583;BME280;36329;48.816;44.624;2023-04-28T11:49:46;100649;;;24.9;32
49583;BME280;36329;48.816;44.624;2023-04-28T11:52:48;100645;;;24.5;32.4
49583;BME280;36329;48.816;44.624;2023-04-28T11:56:03;100640;;;24.7;32
49583;BME280;36329;48.816;44.624;2023-04-28T11:59:07;100642;;;24.8;31.7
49583;BME280;36329;48.816;44.624;2023-04-28T12:02:09;100640;;;24.8;31.5
49583;BME280;36329;48.816;44.624;2023-04-28T12:05:11;100643;;;24.7;31.9
49583;BME280;36329;48.816;44.624;2023-04-28T12:08:26;100630;;;24.6;31.9
49583;BME280;36329;48.816;44.624;2023-04-28T12:11:29;100633;;;24.9;32.2
49583;BME280;36329;48.816;44.624;2023-04-28T12:14:31;100633;;;25;31.9
49583;BME280;36329;48.816;44.624;2023-04-28T12:17:35;100623;;;24.5;32.6
49583;BME280;36329;48.816;44.624;2023-04-28T12:20:38;100633;;;24.4;33.1
49583;BME280;36329;48.816;44.624;2023-04-28T12:23:40;100622;;;24.5;32.8
49583;BME280;36329;48.816;44.624;2023-04-28T12:26:42;100616;;;24.6;33
49583;BME280;36329;48.816;44.624;2023-04-28T12:29:45;100619;;;24.4;33.3
49583;BME280;36329;48.816;44.624;2023-04-28T12:32:47;100614;;;24.5;33
49583;BME280;36329;48.816;44.624;2023-04-28T12:35:49;100615;;;24.8;32.7
49583;BME280;36329;48.816;44.624;2023-04-28T12:38:51;100611;;;25;32.5
49583;BME280;36329;48.816;44.624;2023-04-28T12:41:53;100615;;;24.9;32.8
49583;BME280;36329;48.816;44.624;2023-04-28T12:44:55;100620;;;24.9;32.8
49583;BME280;36329;48.816;44.624;2023-04-28T12:47:57;100615;;;24.7;32.5
49583;BME280;36329;48.816;44.624;2023-04-28T12:50:59;100611;;;24.6;32.7
49583;BME280;36329;48.816;44.624;2023-04-28T12:54:00;100615;;;24.6;33.2
49583;BME280;36329;48.816;44.624;2023-04-28T12:57:03;100613;;;24.5;33.5
49583;BME280;36329;48.816;44.624;2023-04-28T13:00:06;100603;;;24.6;33.4
49583;BME280;36329;48.816;44.624;2023-04-28T13:03:10;100603;;;24.5;33.2
49583;BME280;36329;48.816;44.624;2023-04-28T13:06:11;100605;;;24.5;33.3
49583;BME280;36329;48.816;44.624;2023-04-28T13:09:14;100605;;;24.3;34
49583;BME280;36329;48.816;44.624;2023-04-28T13:12:17;100603;;;24.5;33.8
49583;BME280;36329;48.816;44.624;2023-04-28T13:15:19;100600;;;24.5;33.8
49583;BME280;36329;48.816;44.624;2023-04-28T13:18:22;100601;;;24.4;34.2
49583;BME280;36329;48.816;44.624;2023-04-28T13:21:24;100601;;;24.5;34.2
49583;BME280;36329;48.816;44.624;2023-04-28T13:24:26;100603;;;24.5;33.8
49583;BME280;36329;48.816;44.624;2023-04-28T13:27:28;100605;;;24.4;33.8
49583;BME280;36329;48.816;44.624;2023-04-28T13:30:30;100593;;;24.4;33.8
49583;BME280;36329;48.816;44.624;2023-04-28T13:33:33;100594;;;24.2;34
49583;BME280;36329;48.816;44.624;2023-04-28T13:36:35;100599;;;24.2;34.1
49583;BME280;36329;48.816;44.624;2023-04-28T13:39:36;100590;;;24.2;33.9
49583;BME280;36329;48.816;44.624;2023-04-28T13:42:38;100590;;;24.3;34.1
49583;BME280;36329;48.816;44.624;2023-04-28T13:45:40;100592;;;24.5;34.4
49583;BME280;36329;48.816;44.624;2023-04-28T13:48:42;100588;;;24.5;34.1
49583;BME280;36329;48.816;44.624;2023-04-28T13:51:44;100588;;;24.6;34
49583;BME280;36329;48.816;44.624;2023-04-28T13:54:46;100582;;;24.4;34
49583;BME280;36329;48.816;44.624;2023-04-28T13:57:48;100583;;;24.4;34.2
49583;BME280;36329;48.816;44.624;2023-04-28T14:00:50;100579;;;24.4;33.8
49583;BME280;36329;48.816;44.624;2023-04-28T14:03:53;100584;;;24.5;33.5
49583;BME280;36329;48.816;44.624;2023-04-28T14:06:54;100578;;;24.4;34
49583;BME280;36329;48.816;44.624;2023-04-28T14:09:56;100578;;;24.5;33.9
49583;BME280;36329;48.816;44.624;2023-04-28T14:12:59;100576;;;24.2;34.1
49583;BME280;36329;48.816;44.624;2023-04-28T14:16:01;100576;;;24.1;34.1
49583;BME280;36329;48.816;44.624;2023-04-28T14:19:03;100567;;;24;34
49583;BME280;36329;48.816;44.624;2023-04-28T14:22:05;100570;;;24.1;33.8
49583;BME280;36329;48.816;44.624;2023-04-28T14:25:08;100567;;;24.1;33.8
49583;BME280;36329;48.816;44.624;2023-04-28T14:28:10;100567;;;24;33.9
49583;BME280;36329;48.816;44.624;2023-04-28T14:31:12;100567;;;23.9;34.2
49583;BME280;36329;48.816;44.624;2023-04-28T14:34:14;100567;;;23.8;34.2
49583;BME280;36329;48.816;44.624;2023-04-28T14:37:16;100567;;;23.9;34.2
49583;BME280;36329;48.816;44.624;2023-04-28T14:40:18;100568;;;23.8;34.5
49583;BME280;36329;48.816;44.624;2023-04-28T14:43:21;100561;;;23.7;34.8
49583;BME280;36329;48.816;44.624;2023-04-28T14:46:23;100559;;;23.8;35
49583;BME280;36329;48.816;44.624;2023-04-28T14:49:25;100561;;;23.8;35
49583;BME280;36329;48.816;44.624;2023-04-28T14:52:27;100560;;;23.8;35.2
49583;BME280;36329;48.816;44.624;2023-04-28T14:55:29;100557;;;23.8;35.5
49583;BME280;36329;48.816;44.624;2023-04-28T14:58:31;100554;;;23.7;35.7
49583;BME280;36329;48.816;44.624;2023-04-28T15:01:33;100548;;;23.8;35.7
49583;BME280;36329;48.816;44.624;2023-04-28T15:04:35;100546;;;23.8;36
49583;BME280;36329;48.816;44.624;2023-04-28T15:07:37;100542;;;23.8;35.8
49583;BME280;36329;48.816;44.624;2023-04-28T15:10:39;100542;;;23.7;35.7
49583;BME280;36329;48.816;44.624;2023-04-28T15:13:41;100540;;;23.8;35.8
49583;BME280;36329;48.816;44.624;2023-04-28T15:16:44;100541;;;23.8;35.7
49583;BME280;36329;48.816;44.624;2023-04-28T15:19:47;100543;;;23.7;36.1
49583;BME280;36329;48.816;44.624;2023-04-28T15:22:48;100543;;;23.7;36.2
49583;BME280;36329;48.816;44.624;2023-04-28T15:25:50;100539;;;23.7;36.3
49583;BME280;36329;48.816;44.624;2023-04-28T15:28:52;100537;;;23.7;36.5
49583;BME280;36329;48.816;44.624;2023-04-28T15:31:54;100532;;;23.7;37.4
49583;BME280;36329;48.816;44.624;2023-04-28T15:34:56;100527;;;23.6;36.6
49583;BME280;36329;48.816;44.624;2023-04-28T15:37:58;100527;;;23.6;37.3
49583;BME280;36329;48.816;44.624;2023-04-28T15:41:00;100528;;;23.5;37.2
49583;BME280;36329;48.816;44.624;2023-04-28T15:44:02;100523;;;23.5;38.8
49583;BME280;36329;48.816;44.624;2023-04-28T15:47:04;100526;;;23.5;37.9
49583;BME280;36329;48.816;44.624;2023-04-28T15:50:07;100522;;;23.4;37.5
49583;BME280;36329;48.816;44.624;2023-04-28T15:53:10;100522;;;23.3;38.2
49583;BME280;36329;48.816;44.624;2023-04-28T15:56:11;100517;;;23.3;38
49583;BME280;36329;48.816;44.624;2023-04-28T15:59:13;100521;;;23.2;38.4
49583;BME280;36329;48.816;44.624;2023-04-28T16:02:15;100519;;;23.1;39.5
49583;BME280;36329;48.816;44.624;2023-04-28T16:05:17;100518;;;23;39.9
49583;BME280;36329;48.816;44.624;2023-04-28T16:08:19;100519;;;22.9;39.6
49583;BME280;36329;48.816;44.624;2023-04-28T16:11:21;100519;;;22.9;40.9
49583;BME280;36329;48.816;44.624;2023-04-28T16:14:23;100524;;;22.8;40.8
49583;BME280;36329;48.816;44.624;2023-04-28T16:17:26;100520;;;22.8;41.4
49583;BME280;36329;48.816;44.624;2023-04-28T16:20:28;100514;;;22.7;41.3
49583;BME280;36329;48.816;44.624;2023-04-28T16:23:30;100517;;;22.5;42.2
49583;BME280;36329;48.816;44.624;2023-04-28T16:26:33;100516;;;22.5;42.3
49583;BME280;36329;48.816;44.624;2023-04-28T16:29:35;100512;;;22.3;43.1
49583;BME280;36329;48.816;44.624;2023-04-28T16:32:37;100517;;;22.2;43.5
49583;BME280;36329;48.816;44.624;2023-04-28T16:35:39;100510;;;22.1;44
49583;BME280;36329;48.816;44.624;2023-04-28T16:38:41;100518;;;22.1;44.2
49583;BME280;36329;48.816;44.624;2023-04-28T16:41:45;100517;;;22.1;44.3
49583;BME280;36329;48.816;44.624;2023-04-28T16:44:47;100519;;;22;44.5
49583;BME280;36329;48.816;44.624;2023-04-28T16:47:49;100516;;;22;44.6
49583;BME280;36329;48.816;44.624;2023-04-28T16:50:51;100519;;;21.9;44.7
49583;BME280;36329;48.816;44.624;2023-04-28T16:53:53;100518;;;21.9;44.4
49583;BME280;36329;48.816;44.624;2023-04-28T16:56:55;100519;;;21.9;44.8
49583;BME280;36329;48.816;44.624;2023-04-28T16:59:58;100519;;;21.9;44
49583;BME280;36329;48.816;44.624;2023-04-28T17:03:00;100516;;;21.8;45.2
49583;BME280;36329;48.816;44.624;2023-04-28T17:06:02;100521;;;21.8;46.3
49583;BME280;36329;48.816;44.624;2023-04-28T17:09:04;100519;;;21.5;46.1
49583;BME280;36329;48.816;44.624;2023-04-28T17:12:06;100523;;;21.5;46.9